Portada
METAR-TAF:

METAR-TAF

Aeroports :

Reno-Tahoe International Airport

Reno, Nevada, Estats Units d'Amèrica

latitud: 39-29-02N, longitud: 119-46-16W, altitud: 1345 m

Observació

L'informe es va fer fa 1 hora i 8 minuts, a les 22:55 UTC
Vent calma
Temperatura 29°C
Humitat 12%
Pressió 1023 hPa
Visibilitat: 16.1 km
Cel clar

METAR: KRNO 292255Z 00000KT 10SM CLR 29/M03 A3022 RMK AO2 SLP188 FU ALF ALQDS T02891033

Hora: 17:03 (00:03 UTC)

Pronòstic

L'informe es va fer fa 43 minuts, a les 23:20 UTC
Pronòstic vàlid del 30 a les 00 UTC al 30 a les 24 UTC
Vent 4 kt amb direcció variable
Visibilitat: 10 km
Cel clar
A partir de les 30 a les 1000 UTC
Vent 5 kt amb direcció variable
Visibilitat: 9.7 km
Núvols disperses a una alçada de 3000 ft
fum
A partir de les 30 a les 2100 UTC
Vent 6 kt del Est/Nord-Est
Visibilitat: 9.7 km
Núvols disperses a una alçada de 3000 ft
fum

TAF: KRNO 292320Z 3000/3024 VRB04KT P6SM SKC FM301000 VRB05KT 6SM FU SCT030 FM302100 06006KT 6SM FU SCT030

Observacions i pronòstics meteorològics de més de 4000 aeroports (METAR i TAF).

Les estacions disponibles són els punts grocs i vermells al mapa.

Posi el ratolí al punt desitjat per veure el nom de l'estació.

Feu clic per veure les observacions i els pronòstics meteorològics.

Per canviar el mapa: feu clic els botons verds amb una creu de color negre per apropar; al botó verd amb un guió per allunyar la imatge; o en les fletxes verdes per a mapes adjacents.


METAR-TAF: